createdAt,value
2023-03-23T15:59:40.260Z,67.37
2023-03-23T16:02:43.741Z,67.18
2023-03-23T16:05:46.737Z,67.21
2023-03-23T16:08:53.878Z,67.32
2023-03-23T16:11:57.867Z,67.64
2023-03-23T16:15:02.454Z,68.33
2023-03-23T16:18:05.479Z,68.21
2023-03-23T16:21:09.169Z,68.25
2023-03-23T16:24:12.009Z,68.99
2023-03-23T16:27:15.120Z,69.04
2023-03-23T16:30:21.476Z,69.31
2023-03-23T16:33:24.375Z,69.85
2023-03-23T16:36:27.263Z,69.93
2023-03-23T16:39:30.244Z,70.39
2023-03-23T16:42:33.123Z,69.75
2023-03-23T16:45:38.218Z,69.50
2023-03-23T16:48:41.446Z,69.89
2023-03-23T16:51:44.280Z,69.76
2023-03-23T16:54:47.273Z,69.65
2023-03-23T16:57:49.997Z,69.34
2023-03-23T17:00:54.546Z,68.92
2023-03-23T17:03:57.618Z,69.10
2023-03-23T17:07:01.029Z,69.48
2023-03-23T17:10:06.062Z,69.37
2023-03-23T17:13:09.727Z,69.22
2023-03-23T17:16:13.952Z,69.05
2023-03-23T17:19:16.855Z,69.27
2023-03-23T17:22:20.457Z,68.96
2023-03-23T17:25:23.282Z,69.23
2023-03-23T17:28:26.221Z,68.88
2023-03-23T17:31:30.480Z,68.76
2023-03-23T17:34:33.384Z,68.74
2023-03-23T17:37:37.919Z,68.80
2023-03-23T17:40:40.860Z,68.79
2023-03-23T17:43:44.075Z,68.87
2023-03-23T17:46:48.321Z,68.91
2023-03-23T17:49:51.269Z,69.27
2023-03-23T17:52:54.120Z,69.63
2023-03-23T17:55:57.637Z,69.84
2023-03-23T17:59:00.414Z,70.02
2023-03-23T18:02:04.982Z,70.05
2023-03-23T18:05:09.636Z,70.55
2023-03-23T18:08:12.694Z,70.89
2023-03-23T18:11:15.611Z,70.73
2023-03-23T18:14:18.545Z,70.67
2023-03-23T18:17:23.257Z,70.58
2023-03-23T18:20:26.231Z,70.90
2023-03-23T18:23:29.742Z,70.68
2023-03-23T18:26:32.528Z,70.62
2023-03-23T18:29:35.238Z,70.97
2023-03-23T18:32:40.552Z,70.99
2023-03-23T18:35:44.376Z,71.38
2023-03-23T18:38:48.255Z,71.60
2023-03-23T18:41:51.246Z,71.60
2023-03-23T18:44:55.252Z,72.12
2023-03-23T18:47:59.544Z,72.39
2023-03-23T18:51:02.616Z,72.20
2023-03-23T18:54:05.987Z,72.37
2023-03-23T18:57:08.887Z,72.36
2023-03-23T19:00:12.743Z,72.66
2023-03-23T19:03:17.109Z,72.79
2023-03-23T19:06:22.730Z,72.90
2023-03-23T19:09:25.920Z,73.11
2023-03-23T19:12:28.900Z,73.04
2023-03-23T19:15:31.791Z,73.21
2023-03-23T19:18:36.235Z,73.79
2023-03-23T19:21:40.444Z,73.95
2023-03-23T19:24:43.237Z,73.88
2023-03-23T19:28:23.155Z,74.46
2023-03-23T19:31:09.543Z,74.13
2023-03-23T19:34:15.134Z,74.72
2023-03-23T19:37:18.624Z,75.23
2023-03-23T19:40:36.584Z,75.26
2023-03-23T19:43:43.894Z,75.27
2023-03-23T19:46:48.403Z,75.43
2023-03-23T19:49:52.849Z,75.52
2023-03-23T19:52:58.397Z,75.76
2023-03-23T19:56:05.094Z,75.49
2023-03-23T19:59:10.617Z,75.51
2023-03-23T20:02:14.406Z,75.70
2023-03-23T20:05:19.753Z,76.12
2023-03-23T20:08:22.557Z,76.08
2023-03-23T20:11:25.434Z,76.37
2023-03-23T20:14:29.349Z,76.58
2023-03-23T20:17:33.293Z,77.02
2023-03-23T20:20:44.322Z,76.69
2023-03-23T20:23:48.863Z,76.89
2023-03-23T20:26:59.326Z,77.03
2023-03-23T20:30:20.566Z,77.23
2023-03-23T20:33:29.040Z,77.11
2023-03-23T20:36:36.311Z,77.25
2023-03-23T20:39:47.820Z,77.72
2023-03-23T20:42:54.736Z,78.33
2023-03-23T20:45:58.533Z,78.77
2023-03-23T20:49:02.450Z,79.27
2023-03-23T20:52:11.869Z,79.65
2023-03-23T20:55:15.660Z,80.61
2023-03-23T20:58:19.186Z,81.44
2023-03-23T21:01:22.465Z,81.67
2023-03-23T21:04:27.261Z,82.45
2023-03-23T21:07:31.651Z,83.02
2023-03-23T21:10:35.258Z,83.67
2023-03-23T21:13:37.957Z,84.17
2023-03-23T21:16:41.584Z,84.55
2023-03-23T21:19:44.414Z,84.36
2023-03-23T21:22:48.515Z,84.89
2023-03-23T21:25:51.328Z,84.71
2023-03-23T21:28:54.852Z,85.05
2023-03-23T21:35:04.458Z,85.11
2023-03-23T21:38:14.111Z,85.02
2023-03-23T21:41:16.815Z,84.96
2023-03-23T21:44:19.597Z,84.66
2023-03-23T21:47:22.310Z,84.50
2023-03-23T21:50:25.271Z,84.53
2023-03-23T21:53:30.935Z,84.87
2023-03-23T21:56:33.944Z,84.90
2023-03-23T21:59:36.643Z,84.79
2023-03-23T22:02:40.489Z,84.68
2023-03-23T22:05:44.132Z,85.04
2023-03-23T22:08:49.427Z,84.50
2023-03-23T22:11:52.164Z,84.91
2023-03-23T22:14:54.891Z,84.89
2023-03-23T22:17:57.670Z,84.63
2023-03-23T22:21:00.500Z,84.77
2023-03-23T22:24:05.326Z,84.41
2023-03-23T22:27:08.029Z,84.42
2023-03-23T22:30:12.142Z,84.51
2023-03-23T22:33:14.931Z,84.55
2023-03-23T22:36:18.227Z,85.11
2023-03-23T22:39:22.336Z,85.67
2023-03-23T22:42:25.192Z,85.80
2023-03-23T22:45:28.092Z,86.25
2023-03-23T22:48:31.600Z,86.59
2023-03-23T22:51:34.366Z,87.63
2023-03-23T22:54:38.386Z,88.10
2023-03-23T22:57:41.038Z,89.55
2023-03-23T23:00:46.267Z,90.74
2023-03-23T23:03:49.831Z,91.66
2023-03-23T23:07:00.424Z,92.52
2023-03-23T23:10:10.956Z,94.14
2023-03-23T23:13:14.607Z,94.50
2023-03-23T23:16:18.495Z,95.24
2023-03-23T23:19:21.322Z,95.70
2023-03-23T23:22:24.051Z,95.45
2023-03-23T23:25:28.635Z,95.83
2023-03-23T23:28:31.842Z,95.82
2023-03-23T23:31:34.650Z,95.12
2023-03-23T23:34:37.801Z,94.72
2023-03-23T23:37:40.687Z,94.34
2023-03-23T23:40:46.763Z,94.10
2023-03-23T23:43:50.027Z,93.85
2023-03-23T23:46:52.759Z,93.48
2023-03-23T23:49:55.518Z,93.74
2023-03-23T23:52:58.602Z,93.58
2023-03-23T23:56:04.394Z,93.44
2023-03-23T23:59:07.066Z,93.74
